createdAt,value
2022-09-27T00:00:24.638Z,98.00
2022-09-27T00:02:52.482Z,98.21
2022-09-27T00:05:20.550Z,98.26
2022-09-27T00:07:48.361Z,98.25
2022-09-27T00:10:16.214Z,98.31
2022-09-27T00:12:45.462Z,98.27
2022-09-27T00:15:13.336Z,98.25
2022-09-27T00:17:41.737Z,98.34
2022-09-27T00:20:10.036Z,98.25
2022-09-27T00:22:38.252Z,98.32
2022-09-27T00:25:07.374Z,98.20
2022-09-27T00:27:35.211Z,98.24
2022-09-27T00:30:04.729Z,98.44
2022-09-27T00:32:32.757Z,98.41
2022-09-27T00:35:00.612Z,98.39
2022-09-27T00:37:28.812Z,98.48
2022-09-27T00:39:56.665Z,98.50
2022-09-27T00:42:24.666Z,98.43
2022-09-27T00:45:05.252Z,98.56
2022-09-27T00:47:39.916Z,98.49
2022-09-27T00:50:11.808Z,98.47
2022-09-27T00:52:42.992Z,98.48
2022-09-27T00:55:12.750Z,98.41
2022-09-27T00:57:41.904Z,98.33
2022-09-27T01:00:12.531Z,98.35
2022-09-27T01:02:42.249Z,98.30
2022-09-27T01:05:10.952Z,98.36
2022-09-27T01:07:38.979Z,98.25
2022-09-27T01:10:07.272Z,98.09
2022-09-27T01:12:40.324Z,98.12
2022-09-27T01:15:16.577Z,98.18
2022-09-27T01:17:50.631Z,98.25
2022-09-27T01:20:45.239Z,97.98
2022-09-27T01:23:32.049Z,98.26
2022-09-27T01:26:10.613Z,98.61
2022-09-27T01:28:52.494Z,98.23
2022-09-27T01:31:25.066Z,98.33
2022-09-27T01:34:02.193Z,98.30
2022-09-27T01:36:38.690Z,98.03
2022-09-27T01:39:15.958Z,98.13
2022-09-27T01:41:47.151Z,98.12
2022-09-27T01:44:22.154Z,98.21
2022-09-27T01:46:54.025Z,97.84
2022-09-27T01:49:25.997Z,97.82
2022-09-27T01:51:56.890Z,98.06
2022-09-27T01:54:26.369Z,97.92
2022-09-27T01:56:56.102Z,98.11
2022-09-27T01:59:29.468Z,98.11
2022-09-27T02:02:01.278Z,98.20
2022-09-27T02:04:32.810Z,98.10
2022-09-27T02:07:03.269Z,98.26
2022-09-27T02:09:34.043Z,97.96
2022-09-27T02:12:04.659Z,98.03
2022-09-27T02:14:35.110Z,98.32
2022-09-27T02:17:10.152Z,98.03
2022-09-27T02:19:42.148Z,98.19
2022-09-27T02:22:15.982Z,98.00
2022-09-27T02:24:47.517Z,97.98
2022-09-27T02:27:19.086Z,98.24
2022-09-27T02:29:51.430Z,98.31
2022-09-27T02:32:20.753Z,97.94
2022-09-27T02:34:49.833Z,98.11
2022-09-27T02:37:17.685Z,98.01
2022-09-27T02:39:45.958Z,97.68
2022-09-27T02:42:13.829Z,97.67
2022-09-27T02:44:42.458Z,97.86
2022-09-27T02:47:27.920Z,97.89
2022-09-27T02:50:03.407Z,98.05
2022-09-27T02:52:38.189Z,98.07
2022-09-27T02:55:12.082Z,97.96
2022-09-27T02:57:45.991Z,98.29
2022-09-27T03:00:18.018Z,98.11
2022-09-27T03:02:51.386Z,98.20
2022-09-27T03:05:23.060Z,98.30
2022-09-27T03:07:51.042Z,98.16
2022-09-27T03:10:19.489Z,98.51
2022-09-27T03:12:47.300Z,98.54
2022-09-27T03:15:15.115Z,98.74
2022-09-27T03:17:42.988Z,98.76
2022-09-27T03:20:10.944Z,98.77
2022-09-27T03:22:40.706Z,99.07
2022-09-27T03:25:09.191Z,98.53
2022-09-27T03:27:37.126Z,98.61
2022-09-27T03:30:06.273Z,98.34
2022-09-27T03:32:34.282Z,98.37
2022-09-27T03:35:02.121Z,98.44
2022-09-27T03:37:29.892Z,98.35
2022-09-27T03:39:59.055Z,98.21
2022-09-27T03:42:26.835Z,98.33
2022-09-27T03:44:54.883Z,98.45
2022-09-27T03:47:22.949Z,98.34
2022-09-27T03:49:50.865Z,98.73
2022-09-27T03:52:18.904Z,99.00
2022-09-27T03:54:46.735Z,98.85
2022-09-27T03:57:16.084Z,99.11
2022-09-27T03:59:43.980Z,98.94
2022-09-27T04:02:11.803Z,98.75
2022-09-27T04:04:39.621Z,98.79
2022-09-27T04:07:08.424Z,98.98
2022-09-27T04:09:41.122Z,98.84
2022-09-27T04:12:12.210Z,98.85
2022-09-27T04:14:41.371Z,98.99
2022-09-27T04:17:09.215Z,98.46
2022-09-27T04:19:37.746Z,98.59
2022-09-27T04:22:05.541Z,99.21
2022-09-27T04:24:33.904Z,98.81
2022-09-27T04:27:01.693Z,98.68
2022-09-27T04:29:29.959Z,98.65
2022-09-27T04:31:59.573Z,98.77
2022-09-27T04:34:45.559Z,99.06
2022-09-27T04:37:14.062Z,98.86
2022-09-27T04:39:41.872Z,98.55
2022-09-27T04:42:09.696Z,98.05
2022-09-27T04:44:37.523Z,98.22
2022-09-27T04:49:35.653Z,98.26
2022-09-27T04:52:03.470Z,98.51
2022-09-27T04:54:31.325Z,98.25
2022-09-27T04:56:59.247Z,98.47
2022-09-27T04:59:27.581Z,98.73
2022-09-27T05:01:55.572Z,98.88
2022-09-27T05:04:24.782Z,98.48
2022-09-27T05:06:56.907Z,98.14
2022-09-27T05:09:25.253Z,98.05
2022-09-27T05:11:53.106Z,98.32
2022-09-27T05:14:21.173Z,98.23
2022-09-27T05:16:49.031Z,98.49
2022-09-27T05:19:17.094Z,98.38
2022-09-27T05:21:46.542Z,98.39
2022-09-27T05:24:14.507Z,98.16
2022-09-27T05:26:42.775Z,97.87
2022-09-27T05:29:10.841Z,98.15
2022-09-27T05:31:38.672Z,97.98
2022-09-27T05:34:11.882Z,98.24
2022-09-27T05:36:39.954Z,98.02
2022-09-27T05:39:09.338Z,98.04
2022-09-27T05:41:37.275Z,98.01
2022-09-27T05:44:05.951Z,97.51
2022-09-27T05:46:34.169Z,97.70
2022-09-27T05:49:02.178Z,97.80
2022-09-27T05:51:30.132Z,97.63
2022-09-27T05:53:58.193Z,97.42
2022-09-27T05:56:27.418Z,97.49
2022-09-27T05:58:55.240Z,96.64
2022-09-27T06:01:23.257Z,96.40
2022-09-27T06:03:53.526Z,96.32
2022-09-27T06:06:23.047Z,95.84
2022-09-27T06:08:50.893Z,95.16
2022-09-27T06:11:18.753Z,94.82
2022-09-27T06:13:48.049Z,94.84
2022-09-27T06:16:17.170Z,94.60
2022-09-27T06:18:45.026Z,94.79
2022-09-27T06:21:13.124Z,94.47
2022-09-27T06:23:40.923Z,94.38
2022-09-27T06:26:08.964Z,94.12
2022-09-27T06:28:36.767Z,93.27
2022-09-27T06:31:08.560Z,92.45
2022-09-27T06:33:36.750Z,92.27
2022-09-27T06:36:05.760Z,92.19
2022-09-27T06:38:33.854Z,91.93
2022-09-27T06:41:02.520Z,91.64
2022-09-27T06:43:31.157Z,91.17
2022-09-27T06:46:01.165Z,91.39
2022-09-27T06:48:31.448Z,91.15
2022-09-27T06:50:59.323Z,91.01
2022-09-27T06:53:29.084Z,91.47
2022-09-27T06:55:58.562Z,90.94
2022-09-27T06:58:43.976Z,90.69
2022-09-27T07:01:12.237Z,90.12
2022-09-27T07:03:43.051Z,89.65
2022-09-27T07:06:20.267Z,89.85
2022-09-27T07:08:51.084Z,89.32
2022-09-27T07:11:19.320Z,88.47
2022-09-27T07:13:47.090Z,87.56
2022-09-27T07:16:15.203Z,88.07
2022-09-27T07:18:44.564Z,87.99
2022-09-27T07:21:12.695Z,87.57
2022-09-27T07:23:40.674Z,88.59
2022-09-27T07:26:10.370Z,88.27
2022-09-27T07:28:41.454Z,86.83
2022-09-27T07:31:10.284Z,87.50
2022-09-27T07:33:43.050Z,87.48
2022-09-27T07:36:13.685Z,86.61
2022-09-27T07:38:41.481Z,86.18
2022-09-27T07:41:09.832Z,86.30
2022-09-27T07:43:37.672Z,85.73
2022-09-27T07:46:05.501Z,84.55
2022-09-27T07:48:33.580Z,81.67
2022-09-27T07:51:01.371Z,70.46
2022-09-27T07:53:30.535Z,72.07
2022-09-27T07:55:58.921Z,70.70
2022-09-27T07:58:26.690Z,72.87
2022-09-27T08:00:56.773Z,74.00
2022-09-27T08:03:24.704Z,74.97
2022-09-27T08:05:52.541Z,75.34
2022-09-27T08:08:20.425Z,75.25
2022-09-27T08:10:49.600Z,74.63
2022-09-27T08:13:20.008Z,74.04
2022-09-27T08:15:48.659Z,72.25
2022-09-27T08:18:17.526Z,69.62
2022-09-27T08:20:46.842Z,69.42
2022-09-27T08:23:14.637Z,67.45
2022-09-27T08:25:43.804Z,65.03
2022-09-27T08:28:12.978Z,65.07
2022-09-27T08:30:40.831Z,65.39
2022-09-27T08:33:08.690Z,63.84
2022-09-27T08:35:36.657Z,64.36
2022-09-27T08:38:05.822Z,64.17
2022-09-27T08:40:41.560Z,57.21
2022-09-27T08:43:15.120Z,48.95
2022-09-27T08:45:50.034Z,45.14
2022-09-27T08:48:18.761Z,46.36
2022-09-27T08:50:49.471Z,51.32
2022-09-27T08:53:21.349Z,52.87
2022-09-27T08:55:50.635Z,54.06
2022-09-27T08:58:23.222Z,54.65
2022-09-27T09:00:53.273Z,55.61
2022-09-27T09:03:23.457Z,54.36
2022-09-27T09:05:57.301Z,56.08
2022-09-27T09:08:32.293Z,58.27
2022-09-27T09:11:24.963Z,57.93
2022-09-27T09:14:13.428Z,60.81
2022-09-27T09:16:47.259Z,61.63
2022-09-27T09:19:27.688Z,62.75
2022-09-27T09:21:59.878Z,63.13
2022-09-27T09:24:36.192Z,61.84
2022-09-27T09:27:08.452Z,60.84
2022-09-27T09:29:43.989Z,61.93
2022-09-27T09:32:21.310Z,63.59
2022-09-27T09:34:53.005Z,64.62
2022-09-27T09:37:22.657Z,65.25
2022-09-27T09:39:53.764Z,66.77
2022-09-27T09:42:25.503Z,66.25
2022-09-27T09:44:55.502Z,66.86
2022-09-27T09:47:30.753Z,67.49
2022-09-27T09:49:59.896Z,66.14
2022-09-27T09:52:40.601Z,66.29
2022-09-27T09:55:15.001Z,67.95
2022-09-27T09:57:46.290Z,67.42
2022-09-27T10:00:15.180Z,67.28
2022-09-27T10:02:45.464Z,65.47
2022-09-27T10:05:15.134Z,63.24
2022-09-27T10:07:43.173Z,63.17
2022-09-27T10:10:14.313Z,63.05
2022-09-27T10:12:42.362Z,61.10
2022-09-27T10:15:15.065Z,60.59
2022-09-27T10:17:46.370Z,57.27
2022-09-27T10:20:21.483Z,54.74
2022-09-27T10:22:54.433Z,51.41
2022-09-27T10:25:22.458Z,50.19
2022-09-27T10:27:51.362Z,51.18
2022-09-27T10:30:23.715Z,54.33
2022-09-27T10:32:54.577Z,59.21
2022-09-27T10:35:32.644Z,61.99
2022-09-27T10:38:13.533Z,64.96
2022-09-27T10:40:41.702Z,66.56
2022-09-27T10:43:29.448Z,67.53
2022-09-27T10:46:04.084Z,65.51
2022-09-27T10:48:33.656Z,63.33
2022-09-27T10:51:02.724Z,61.88
2022-09-27T10:53:31.499Z,58.69
2022-09-27T10:55:59.796Z,61.04
2022-09-27T10:58:28.835Z,58.60
2022-09-27T11:00:58.304Z,58.34
2022-09-27T11:03:28.904Z,59.31
2022-09-27T11:05:59.388Z,63.78
2022-09-27T11:08:33.877Z,66.15
2022-09-27T11:11:03.336Z,69.57
2022-09-27T11:13:33.026Z,70.33
2022-09-27T11:16:19.095Z,71.54
2022-09-27T11:18:50.914Z,73.53
2022-09-27T11:21:24.588Z,72.82
2022-09-27T11:24:00.347Z,74.97
2022-09-27T11:26:33.697Z,75.82
2022-09-27T11:29:10.148Z,75.61
2022-09-27T11:31:42.883Z,75.73
2022-09-27T11:34:27.762Z,77.76
2022-09-27T11:37:05.575Z,79.60
2022-09-27T11:39:40.869Z,80.21
2022-09-27T11:42:16.389Z,81.12
2022-09-27T11:45:19.907Z,81.52
2022-09-27T11:47:50.888Z,80.98
2022-09-27T11:50:30.654Z,75.96
2022-09-27T11:53:11.219Z,69.63
2022-09-27T11:55:46.121Z,64.45
2022-09-27T11:58:22.112Z,63.97
2022-09-27T12:00:58.982Z,60.96
2022-09-27T12:03:35.838Z,59.13
2022-09-27T12:06:12.428Z,57.00
2022-09-27T12:08:59.321Z,59.30
2022-09-27T12:11:30.406Z,59.02
2022-09-27T12:14:00.719Z,56.13
2022-09-27T12:16:29.601Z,54.58
2022-09-27T12:18:58.669Z,55.95
2022-09-27T12:21:28.035Z,56.58
2022-09-27T12:23:57.715Z,52.42
2022-09-27T12:26:27.454Z,54.11
2022-09-27T12:28:57.600Z,55.79
2022-09-27T12:31:30.749Z,58.37
2022-09-27T12:34:03.572Z,57.20
2022-09-27T12:36:38.832Z,56.23
2022-09-27T12:39:12.252Z,51.47
2022-09-27T12:41:42.288Z,50.04
2022-09-27T12:44:12.807Z,49.57
2022-09-27T12:46:45.684Z,50.32
2022-09-27T12:49:16.482Z,52.29
2022-09-27T12:51:47.507Z,53.65
2022-09-27T12:54:25.220Z,54.09
2022-09-27T12:56:58.007Z,53.19
2022-09-27T12:59:46.941Z,53.25
2022-09-27T13:02:28.826Z,53.47
2022-09-27T13:05:18.216Z,54.46
2022-09-27T13:07:53.206Z,54.44
2022-09-27T13:10:41.412Z,56.11
2022-09-27T13:13:11.668Z,56.95
2022-09-27T13:15:40.841Z,52.04
2022-09-27T13:18:29.215Z,49.72
2022-09-27T13:20:57.243Z,51.22
2022-09-27T13:23:59.282Z,54.59
2022-09-27T13:26:48.414Z,54.90
2022-09-27T13:29:24.791Z,53.74
2022-09-27T13:32:16.746Z,54.44
2022-09-27T13:34:46.923Z,58.46
2022-09-27T13:37:44.451Z,60.33
2022-09-27T13:40:27.232Z,62.12
2022-09-27T13:43:16.321Z,63.54
2022-09-27T13:45:51.898Z,63.68
2022-09-27T13:48:21.914Z,63.64
2022-09-27T13:50:53.316Z,61.97
2022-09-27T13:53:24.185Z,60.41
2022-09-27T13:55:53.807Z,60.05
2022-09-27T13:58:39.492Z,59.43
2022-09-27T14:01:13.941Z,59.98
2022-09-27T14:03:45.228Z,59.11
2022-09-27T14:06:18.596Z,59.03
2022-09-27T14:08:47.339Z,59.47
2022-09-27T14:11:16.621Z,60.60
2022-09-27T14:13:45.734Z,60.74
2022-09-27T14:16:16.746Z,60.74
2022-09-27T14:18:47.995Z,60.36
2022-09-27T14:21:28.726Z,59.73
2022-09-27T14:24:11.541Z,58.95
2022-09-27T14:26:39.779Z,57.89
2022-09-27T14:29:16.760Z,57.73
2022-09-27T14:31:44.992Z,58.32
2022-09-27T14:34:13.340Z,57.98
2022-09-27T14:37:01.725Z,58.90
2022-09-27T14:39:32.381Z,58.68
2022-09-27T14:42:00.549Z,59.12
2022-09-27T14:44:28.703Z,58.89
2022-09-27T14:47:08.779Z,59.00
2022-09-27T14:49:36.981Z,58.81
2022-09-27T14:52:17.687Z,59.74
2022-09-27T14:54:47.875Z,60.07
2022-09-27T14:57:16.977Z,60.12
2022-09-27T14:59:47.338Z,60.80
2022-09-27T15:02:18.553Z,60.54
2022-09-27T15:04:47.707Z,61.58
2022-09-27T15:07:17.099Z,61.24
2022-09-27T15:09:45.691Z,61.93
2022-09-27T15:12:15.300Z,62.83
2022-09-27T15:14:44.843Z,62.69
2022-09-27T15:17:18.267Z,63.30
2022-09-27T15:19:57.294Z,63.79
2022-09-27T15:22:34.125Z,62.76
2022-09-27T15:25:06.308Z,62.32
2022-09-27T15:27:34.326Z,63.81
2022-09-27T15:30:02.140Z,63.50
2022-09-27T15:32:30.529Z,63.46
2022-09-27T15:35:06.869Z,64.01
2022-09-27T15:37:37.584Z,64.30
2022-09-27T15:40:30.075Z,64.70
2022-09-27T15:42:59.369Z,64.63
2022-09-27T15:45:28.678Z,64.13
2022-09-27T15:47:56.558Z,64.75
2022-09-27T15:50:37.981Z,64.04
2022-09-27T15:53:07.671Z,64.59
2022-09-27T15:55:37.130Z,64.27
2022-09-27T15:58:06.301Z,64.74
2022-09-27T16:00:34.989Z,64.58
2022-09-27T16:03:03.003Z,64.72
2022-09-27T16:05:33.067Z,64.27
2022-09-27T16:08:01.116Z,65.02
2022-09-27T16:10:36.968Z,65.10
2022-09-27T16:13:05.021Z,65.79
2022-09-27T16:15:32.828Z,65.13
2022-09-27T16:18:01.026Z,65.96
2022-09-27T16:20:28.894Z,65.90
2022-09-27T16:22:57.104Z,65.52
2022-09-27T16:25:25.211Z,65.92
2022-09-27T16:27:54.351Z,66.69
2022-09-27T16:30:22.170Z,67.33
2022-09-27T16:32:50.619Z,67.22
2022-09-27T16:35:19.202Z,67.44
2022-09-27T16:37:47.114Z,67.80
2022-09-27T16:40:17.938Z,68.26
2022-09-27T16:42:46.022Z,69.10
2022-09-27T16:45:19.233Z,68.56
2022-09-27T16:47:48.077Z,69.23
2022-09-27T16:50:33.557Z,70.08
2022-09-27T16:53:01.531Z,70.05
2022-09-27T16:55:30.249Z,70.77
2022-09-27T16:57:59.088Z,71.08
2022-09-27T17:00:28.400Z,71.97
2022-09-27T17:02:56.292Z,72.28
2022-09-27T17:05:24.233Z,72.90
2022-09-27T17:07:52.635Z,73.19
2022-09-27T17:10:20.554Z,73.61
2022-09-27T17:12:48.396Z,74.20
2022-09-27T17:15:16.952Z,74.76
2022-09-27T17:17:49.272Z,75.02
2022-09-27T17:20:17.602Z,74.71
2022-09-27T17:22:45.389Z,74.36
2022-09-27T17:25:13.373Z,72.96
2022-09-27T17:27:41.149Z,73.08
2022-09-27T17:30:09.397Z,72.84
2022-09-27T17:32:38.468Z,73.14
2022-09-27T17:35:09.218Z,73.06
2022-09-27T17:37:37.049Z,73.08
2022-09-27T17:40:05.286Z,73.26
2022-09-27T17:42:33.582Z,73.13
2022-09-27T17:45:01.512Z,74.27
2022-09-27T17:47:46.918Z,74.59
2022-09-27T17:50:25.380Z,75.52
2022-09-27T17:52:53.710Z,76.06
2022-09-27T17:55:22.280Z,75.63
2022-09-27T17:57:52.312Z,75.81
2022-09-27T18:00:20.900Z,75.35
2022-09-27T18:02:48.959Z,75.18
2022-09-27T18:05:21.091Z,75.59
2022-09-27T18:07:49.292Z,75.21
2022-09-27T18:10:18.009Z,75.47
2022-09-27T18:12:45.905Z,75.53
2022-09-27T18:15:17.851Z,75.29
2022-09-27T18:17:45.837Z,75.79
2022-09-27T18:20:13.731Z,75.52
2022-09-27T18:22:42.856Z,75.90
2022-09-27T18:25:11.961Z,76.02
2022-09-27T18:27:40.869Z,76.28
2022-09-27T18:30:09.404Z,75.90
2022-09-27T18:32:37.354Z,76.36
2022-09-27T18:35:05.342Z,76.90
2022-09-27T18:37:33.210Z,77.50
2022-09-27T18:40:02.550Z,77.64
2022-09-27T18:42:31.142Z,78.49
2022-09-27T18:44:59.123Z,78.92
2022-09-27T18:47:26.984Z,79.85
2022-09-27T18:49:54.798Z,80.06
2022-09-27T18:52:22.589Z,80.72
2022-09-27T18:54:50.865Z,81.07
2022-09-27T18:57:20.198Z,81.37
2022-09-27T18:59:49.188Z,81.70
2022-09-27T19:02:17.119Z,81.68
2022-09-27T19:04:44.954Z,81.84
2022-09-27T19:07:12.828Z,82.33
2022-09-27T19:09:40.788Z,83.12
2022-09-27T19:12:08.556Z,83.45
2022-09-27T19:14:37.713Z,83.72
2022-09-27T19:17:05.529Z,84.03
2022-09-27T19:19:33.349Z,84.41
2022-09-27T19:22:01.276Z,84.67
2022-09-27T19:24:29.113Z,84.25
2022-09-27T19:26:57.244Z,84.63
2022-09-27T19:29:25.083Z,84.88
2022-09-27T19:31:54.277Z,85.06
2022-09-27T19:34:22.262Z,85.44
2022-09-27T19:36:50.067Z,86.07
2022-09-27T19:39:18.000Z,85.96
2022-09-27T19:41:45.929Z,85.62
2022-09-27T19:44:14.464Z,85.70
2022-09-27T19:46:45.056Z,86.47
2022-09-27T19:49:14.495Z,86.20
2022-09-27T19:51:42.316Z,86.50
2022-09-27T19:54:10.713Z,86.66
2022-09-27T19:56:38.717Z,86.71
2022-09-27T19:59:07.457Z,86.10
2022-09-27T20:01:43.711Z,86.61
2022-09-27T20:04:12.458Z,86.38
2022-09-27T20:06:41.769Z,86.86
2022-09-27T20:09:09.967Z,87.37
2022-09-27T20:11:37.823Z,86.73
2022-09-27T20:14:05.850Z,87.05
2022-09-27T20:16:35.341Z,87.73
2022-09-27T20:19:05.864Z,87.70
2022-09-27T20:21:33.986Z,87.40
2022-09-27T20:24:03.713Z,87.92
2022-09-27T20:26:32.128Z,88.08
2022-09-27T20:29:01.121Z,88.26
2022-09-27T20:31:30.052Z,88.50
2022-09-27T20:33:57.994Z,88.61
2022-09-27T20:36:26.557Z,89.56
2022-09-27T20:38:59.610Z,90.01
2022-09-27T20:41:31.690Z,90.24
2022-09-27T20:44:01.034Z,90.48
2022-09-27T20:46:28.899Z,91.17
2022-09-27T20:48:58.906Z,90.92
2022-09-27T20:51:27.108Z,91.48
2022-09-27T20:53:55.262Z,91.96
2022-09-27T20:56:24.170Z,92.50
2022-09-27T20:58:54.169Z,92.67
2022-09-27T21:01:22.840Z,93.17
2022-09-27T21:03:54.190Z,93.41
2022-09-27T21:06:23.844Z,93.83
2022-09-27T21:08:52.301Z,93.65
2022-09-27T21:11:20.951Z,94.39
2022-09-27T21:13:49.533Z,94.59
2022-09-27T21:16:20.510Z,94.45
2022-09-27T21:18:49.682Z,94.37
2022-09-27T21:21:17.837Z,94.72
2022-09-27T21:23:46.241Z,94.99
2022-09-27T21:26:14.840Z,95.05
2022-09-27T21:28:43.521Z,95.56
2022-09-27T21:31:12.470Z,95.22
2022-09-27T21:33:42.229Z,95.46
2022-09-27T21:36:11.829Z,95.51
2022-09-27T21:38:39.768Z,95.59
2022-09-27T21:41:08.316Z,95.89
2022-09-27T21:43:37.612Z,95.75
2022-09-27T21:46:06.382Z,95.96
2022-09-27T21:48:35.030Z,96.54
2022-09-27T21:51:05.477Z,96.48
2022-09-27T21:53:33.493Z,96.29
2022-09-27T21:56:01.789Z,96.71
2022-09-27T21:58:29.769Z,96.62
2022-09-27T22:00:57.618Z,96.63
2022-09-27T22:03:25.592Z,96.63
2022-09-27T22:05:53.724Z,96.75
2022-09-27T22:08:23.134Z,96.45
2022-09-27T22:10:50.964Z,96.54
2022-09-27T22:13:18.759Z,97.24
2022-09-27T22:15:46.775Z,97.16
2022-09-27T22:18:14.601Z,96.72
2022-09-27T22:20:42.417Z,96.99
2022-09-27T22:23:10.228Z,97.22
2022-09-27T22:25:39.998Z,96.68
2022-09-27T22:28:08.300Z,97.19
2022-09-27T22:30:36.246Z,96.95
2022-09-27T22:33:04.078Z,96.97
2022-09-27T22:35:31.883Z,97.17
2022-09-27T22:37:59.734Z,97.02
2022-09-27T22:40:27.722Z,97.25
2022-09-27T22:42:56.906Z,97.35
2022-09-27T22:45:26.160Z,97.71
2022-09-27T22:47:54.024Z,97.73
2022-09-27T22:50:21.994Z,97.81
2022-09-27T22:52:49.943Z,97.87
2022-09-27T22:55:17.852Z,97.37
2022-09-27T22:57:45.655Z,97.31
2022-09-27T23:00:15.304Z,97.77
2022-09-27T23:02:43.072Z,97.92
2022-09-27T23:05:11.016Z,97.63
2022-09-27T23:07:38.838Z,97.69
2022-09-27T23:10:07.488Z,98.11
2022-09-27T23:12:35.289Z,97.58
2022-09-27T23:15:03.082Z,98.13
2022-09-27T23:17:33.064Z,97.69
2022-09-27T23:20:02.680Z,97.84
2022-09-27T23:22:33.073Z,98.21
2022-09-27T23:25:00.968Z,97.77
2022-09-27T23:27:45.115Z,97.65
2022-09-27T23:30:13.520Z,97.79
2022-09-27T23:32:44.680Z,97.70
2022-09-27T23:35:12.940Z,97.75
2022-09-27T23:37:41.101Z,97.55
2022-09-27T23:40:09.542Z,97.85
2022-09-27T23:42:37.441Z,97.81
2022-09-27T23:45:05.699Z,97.73
2022-09-27T23:47:33.701Z,97.71
2022-09-27T23:50:02.832Z,98.14
2022-09-27T23:52:30.631Z,97.72
2022-09-27T23:54:58.399Z,97.89
2022-09-27T23:57:26.225Z,97.35
2022-09-27T23:59:54.137Z,97.47
